sensor_id;sensor_type;location;lat;lon;timestamp;P1;durP1;ratioP1;P2;durP2;ratioP2
69463;SDS011;56665;41.106;16.688;2022-11-15T00:01:15;7.60;;;5.03;;
69463;SDS011;56665;41.106;16.688;2022-11-15T00:04:40;7.65;;;4.50;;
69463;SDS011;56665;41.106;16.688;2022-11-15T00:08:02;9.85;;;4.68;;
69463;SDS011;56665;41.106;16.688;2022-11-15T00:11:24;7.88;;;4.72;;
69463;SDS011;56665;41.106;16.688;2022-11-15T00:14:48;9.98;;;4.78;;
69463;SDS011;56665;41.106;16.688;2022-11-15T00:18:12;8.50;;;4.57;;
69463;SDS011;56665;41.106;16.688;2022-11-15T00:21:36;10.48;;;4.90;;
69463;SDS011;56665;41.106;16.688;2022-11-15T00:25:01;9.85;;;5.00;;
69463;SDS011;56665;41.106;16.688;2022-11-15T00:28:23;9.55;;;4.45;;
69463;SDS011;56665;41.106;16.688;2022-11-15T00:31:46;9.70;;;5.28;;
69463;SDS011;56665;41.106;16.688;2022-11-15T00:35:09;11.17;;;5.43;;
69463;SDS011;56665;41.106;16.688;2022-11-15T00:38:34;12.50;;;5.97;;
69463;SDS011;56665;41.106;16.688;2022-11-15T00:41:59;19.98;;;8.70;;
69463;SDS011;56665;41.106;16.688;2022-11-15T00:45:21;28.05;;;10.68;;
69463;SDS011;56665;41.106;16.688;2022-11-15T00:48:44;39.85;;;14.55;;
69463;SDS011;56665;41.106;16.688;2022-11-15T00:52:06;44.33;;;16.07;;
69463;SDS011;56665;41.106;16.688;2022-11-15T00:55:31;39.47;;;15.07;;
69463;SDS011;56665;41.106;16.688;2022-11-15T00:58:56;34.22;;;13.77;;
69463;SDS011;56665;41.106;16.688;2022-11-15T01:02:18;45.90;;;15.73;;
69463;SDS011;56665;41.106;16.688;2022-11-15T01:05:40;37.47;;;13.90;;
69463;SDS011;56665;41.106;16.688;2022-11-15T01:09:04;26.50;;;12.00;;
69463;SDS011;56665;41.106;16.688;2022-11-15T01:12:26;17.60;;;8.30;;
69463;SDS011;56665;41.106;16.688;2022-11-15T01:15:48;13.35;;;6.40;;
69463;SDS011;56665;41.106;16.688;2022-11-15T01:19:10;13.68;;;5.30;;
69463;SDS011;56665;41.106;16.688;2022-11-15T01:22:33;9.05;;;4.88;;
69463;SDS011;56665;41.106;16.688;2022-11-15T01:26:04;9.53;;;5.03;;
69463;SDS011;56665;41.106;16.688;2022-11-15T01:29:27;10.02;;;5.80;;
69463;SDS011;56665;41.106;16.688;2022-11-15T01:32:50;16.10;;;7.43;;
69463;SDS011;56665;41.106;16.688;2022-11-15T01:36:14;12.63;;;6.60;;
69463;SDS011;56665;41.106;16.688;2022-11-15T01:39:38;10.55;;;5.40;;
69463;SDS011;56665;41.106;16.688;2022-11-15T01:43:18;9.10;;;5.07;;
69463;SDS011;56665;41.106;16.688;2022-11-15T01:46:44;7.30;;;4.50;;
69463;SDS011;56665;41.106;16.688;2022-11-15T01:50:14;10.65;;;4.70;;
69463;SDS011;56665;41.106;16.688;2022-11-15T01:53:39;9.88;;;4.80;;
69463;SDS011;56665;41.106;16.688;2022-11-15T01:57:08;10.68;;;5.05;;
69463;SDS011;56665;41.106;16.688;2022-11-15T02:00:32;8.97;;;4.60;;
69463;SDS011;56665;41.106;16.688;2022-11-15T02:03:59;7.93;;;3.70;;
69463;SDS011;56665;41.106;16.688;2022-11-15T02:07:25;7.25;;;3.78;;
69463;SDS011;56665;41.106;16.688;2022-11-15T02:10:49;6.82;;;3.70;;
69463;SDS011;56665;41.106;16.688;2022-11-15T02:14:11;8.80;;;4.10;;
69463;SDS011;56665;41.106;16.688;2022-11-15T02:25:03;7.53;;;3.80;;
69463;SDS011;56665;41.106;16.688;2022-11-15T02:32:32;7.05;;;3.90;;
69463;SDS011;56665;41.106;16.688;2022-11-15T02:36:32;9.27;;;4.60;;
69463;SDS011;56665;41.106;16.688;2022-11-15T02:44:01;10.75;;;5.68;;
69463;SDS011;56665;41.106;16.688;2022-11-15T02:47:29;14.63;;;8.82;;
69463;SDS011;56665;41.106;16.688;2022-11-15T02:50:55;24.30;;;14.75;;
69463;SDS011;56665;41.106;16.688;2022-11-15T02:54:22;17.07;;;10.93;;
69463;SDS011;56665;41.106;16.688;2022-11-15T02:57:58;13.20;;;8.27;;
69463;SDS011;56665;41.106;16.688;2022-11-15T03:09:42;13.02;;;5.90;;
69463;SDS011;56665;41.106;16.688;2022-11-15T03:17:33;18.85;;;8.95;;
69463;SDS011;56665;41.106;16.688;2022-11-15T03:21:05;25.60;;;12.80;;
69463;SDS011;56665;41.106;16.688;2022-11-15T03:24:31;22.23;;;10.88;;
69463;SDS011;56665;41.106;16.688;2022-11-15T03:27:58;18.50;;;8.05;;
69463;SDS011;56665;41.106;16.688;2022-11-15T03:31:27;15.77;;;6.70;;
69463;SDS011;56665;41.106;16.688;2022-11-15T03:35:09;20.60;;;7.97;;
69463;SDS011;56665;41.106;16.688;2022-11-15T03:38:39;24.60;;;9.65;;
69463;SDS011;56665;41.106;16.688;2022-11-15T03:49:33;26.37;;;10.20;;
69463;SDS011;56665;41.106;16.688;2022-11-15T03:52:57;31.30;;;11.02;;
69463;SDS011;56665;41.106;16.688;2022-11-15T03:56:20;24.65;;;10.57;;
69463;SDS011;56665;41.106;16.688;2022-11-15T03:59:42;31.63;;;11.35;;
69463;SDS011;56665;41.106;16.688;2022-11-15T04:03:05;36.35;;;14.45;;
69463;SDS011;56665;41.106;16.688;2022-11-15T04:06:28;45.93;;;16.27;;
69463;SDS011;56665;41.106;16.688;2022-11-15T04:09:51;49.92;;;18.33;;
69463;SDS011;56665;41.106;16.688;2022-11-15T04:13:28;61.15;;;21.80;;
69463;SDS011;56665;41.106;16.688;2022-11-15T04:16:50;65.78;;;24.65;;
69463;SDS011;56665;41.106;16.688;2022-11-15T04:20:15;59.50;;;22.33;;
69463;SDS011;56665;41.106;16.688;2022-11-15T04:23:57;63.47;;;23.20;;
69463;SDS011;56665;41.106;16.688;2022-11-15T04:27:35;58.38;;;22.77;;
69463;SDS011;56665;41.106;16.688;2022-11-15T04:30:58;61.50;;;20.92;;
69463;SDS011;56665;41.106;16.688;2022-11-15T04:34:22;53.13;;;18.75;;
69463;SDS011;56665;41.106;16.688;2022-11-15T04:37:45;44.78;;;16.58;;
69463;SDS011;56665;41.106;16.688;2022-11-15T04:41:07;49.43;;;17.30;;
69463;SDS011;56665;41.106;16.688;2022-11-15T04:44:31;45.90;;;17.33;;
69463;SDS011;56665;41.106;16.688;2022-11-15T04:47:54;42.30;;;17.08;;
69463;SDS011;56665;41.106;16.688;2022-11-15T04:51:17;33.03;;;14.52;;
69463;SDS011;56665;41.106;16.688;2022-11-15T04:54:39;35.20;;;12.98;;
69463;SDS011;56665;41.106;16.688;2022-11-15T04:58:03;27.50;;;10.53;;
69463;SDS011;56665;41.106;16.688;2022-11-15T05:01:28;20.42;;;7.72;;
69463;SDS011;56665;41.106;16.688;2022-11-15T05:04:51;16.10;;;8.05;;
69463;SDS011;56665;41.106;16.688;2022-11-15T05:08:14;14.05;;;6.30;;
69463;SDS011;56665;41.106;16.688;2022-11-15T05:11:37;12.52;;;5.80;;
69463;SDS011;56665;41.106;16.688;2022-11-15T05:15:00;12.03;;;5.40;;
69463;SDS011;56665;41.106;16.688;2022-11-15T05:18:24;13.93;;;5.85;;
69463;SDS011;56665;41.106;16.688;2022-11-15T05:21:48;13.60;;;6.70;;
69463;SDS011;56665;41.106;16.688;2022-11-15T05:25:10;14.02;;;6.70;;
69463;SDS011;56665;41.106;16.688;2022-11-15T05:28:33;13.15;;;6.50;;
69463;SDS011;56665;41.106;16.688;2022-11-15T05:31:58;18.27;;;8.30;;
69463;SDS011;56665;41.106;16.688;2022-11-15T05:35:25;15.25;;;7.28;;
69463;SDS011;56665;41.106;16.688;2022-11-15T05:38:54;14.65;;;7.35;;
69463;SDS011;56665;41.106;16.688;2022-11-15T05:42:17;10.88;;;5.90;;
69463;SDS011;56665;41.106;16.688;2022-11-15T05:45:40;9.75;;;5.30;;
69463;SDS011;56665;41.106;16.688;2022-11-15T05:49:03;9.37;;;4.67;;
69463;SDS011;56665;41.106;16.688;2022-11-15T05:52:30;11.27;;;4.88;;
69463;SDS011;56665;41.106;16.688;2022-11-15T05:55:55;9.63;;;4.63;;
69463;SDS011;56665;41.106;16.688;2022-11-15T05:59:18;8.98;;;4.15;;
69463;SDS011;56665;41.106;16.688;2022-11-15T06:02:41;9.50;;;4.72;;
69463;SDS011;56665;41.106;16.688;2022-11-15T06:06:04;12.80;;;5.57;;
69463;SDS011;56665;41.106;16.688;2022-11-15T06:09:27;11.18;;;5.10;;
69463;SDS011;56665;41.106;16.688;2022-11-15T06:12:59;12.45;;;6.38;;
69463;SDS011;56665;41.106;16.688;2022-11-15T06:16:23;15.95;;;7.32;;
69463;SDS011;56665;41.106;16.688;2022-11-15T06:19:47;16.30;;;7.90;;
69463;SDS011;56665;41.106;16.688;2022-11-15T06:23:09;12.77;;;7.23;;
69463;SDS011;56665;41.106;16.688;2022-11-15T06:26:31;13.05;;;6.97;;
69463;SDS011;56665;41.106;16.688;2022-11-15T06:29:53;12.75;;;7.10;;
69463;SDS011;56665;41.106;16.688;2022-11-15T06:33:15;14.13;;;6.47;;
69463;SDS011;56665;41.106;16.688;2022-11-15T06:36:38;13.70;;;6.40;;
69463;SDS011;56665;41.106;16.688;2022-11-15T06:40:03;14.57;;;6.70;;
69463;SDS011;56665;41.106;16.688;2022-11-15T06:43:25;17.42;;;7.43;;
69463;SDS011;56665;41.106;16.688;2022-11-15T06:46:48;19.60;;;8.48;;
69463;SDS011;56665;41.106;16.688;2022-11-15T06:50:10;20.00;;;8.95;;
69463;SDS011;56665;41.106;16.688;2022-11-15T06:53:35;32.05;;;11.43;;
69463;SDS011;56665;41.106;16.688;2022-11-15T06:56:59;31.37;;;11.60;;
69463;SDS011;56665;41.106;16.688;2022-11-15T07:00:21;29.38;;;11.23;;
69463;SDS011;56665;41.106;16.688;2022-11-15T07:03:44;30.38;;;12.05;;
69463;SDS011;56665;41.106;16.688;2022-11-15T07:07:08;24.83;;;9.70;;
69463;SDS011;56665;41.106;16.688;2022-11-15T07:10:31;19.20;;;8.60;;
69463;SDS011;56665;41.106;16.688;2022-11-15T07:13:54;26.30;;;9.87;;
69463;SDS011;56665;41.106;16.688;2022-11-15T07:17:16;32.17;;;11.50;;
69463;SDS011;56665;41.106;16.688;2022-11-15T07:20:38;34.85;;;14.00;;
69463;SDS011;56665;41.106;16.688;2022-11-15T07:24:01;32.47;;;13.15;;
69463;SDS011;56665;41.106;16.688;2022-11-15T07:27:25;29.75;;;12.00;;
69463;SDS011;56665;41.106;16.688;2022-11-15T07:30:47;26.07;;;11.03;;
69463;SDS011;56665;41.106;16.688;2022-11-15T07:34:09;29.98;;;11.05;;
69463;SDS011;56665;41.106;16.688;2022-11-15T07:37:33;27.08;;;10.40;;
69463;SDS011;56665;41.106;16.688;2022-11-15T07:40:56;32.65;;;11.70;;
69463;SDS011;56665;41.106;16.688;2022-11-15T07:44:19;43.88;;;16.25;;
69463;SDS011;56665;41.106;16.688;2022-11-15T07:47:44;48.70;;;18.27;;
69463;SDS011;56665;41.106;16.688;2022-11-15T07:51:10;47.35;;;19.25;;
69463;SDS011;56665;41.106;16.688;2022-11-15T07:54:34;46.67;;;18.23;;
69463;SDS011;56665;41.106;16.688;2022-11-15T07:58:02;42.53;;;17.48;;
69463;SDS011;56665;41.106;16.688;2022-11-15T08:01:26;45.83;;;18.00;;
69463;SDS011;56665;41.106;16.688;2022-11-15T08:04:49;44.83;;;16.67;;
69463;SDS011;56665;41.106;16.688;2022-11-15T08:08:11;43.35;;;16.85;;
69463;SDS011;56665;41.106;16.688;2022-11-15T08:11:33;44.60;;;16.95;;
69463;SDS011;56665;41.106;16.688;2022-11-15T08:14:56;39.28;;;15.90;;
69463;SDS011;56665;41.106;16.688;2022-11-15T08:18:18;44.03;;;16.02;;
69463;SDS011;56665;41.106;16.688;2022-11-15T08:21:42;39.83;;;15.03;;
69463;SDS011;56665;41.106;16.688;2022-11-15T08:25:04;37.08;;;14.63;;
69463;SDS011;56665;41.106;16.688;2022-11-15T08:28:27;34.72;;;15.13;;
69463;SDS011;56665;41.106;16.688;2022-11-15T08:31:49;31.67;;;15.27;;
69463;SDS011;56665;41.106;16.688;2022-11-15T08:35:11;26.10;;;12.20;;
69463;SDS011;56665;41.106;16.688;2022-11-15T08:38:33;21.10;;;9.67;;
69463;SDS011;56665;41.106;16.688;2022-11-15T08:41:56;12.75;;;6.90;;
69463;SDS011;56665;41.106;16.688;2022-11-15T08:45:18;12.45;;;6.00;;
69463;SDS011;56665;41.106;16.688;2022-11-15T08:48:41;9.82;;;5.57;;
69463;SDS011;56665;41.106;16.688;2022-11-15T08:52:03;11.57;;;5.93;;
69463;SDS011;56665;41.106;16.688;2022-11-15T08:55:26;9.30;;;5.53;;
69463;SDS011;56665;41.106;16.688;2022-11-15T08:58:49;12.05;;;4.97;;
69463;SDS011;56665;41.106;16.688;2022-11-15T09:02:12;10.88;;;5.38;;
69463;SDS011;56665;41.106;16.688;2022-11-15T09:05:36;7.80;;;5.60;;
69463;SDS011;56665;41.106;16.688;2022-11-15T09:09:00;10.02;;;5.75;;
69463;SDS011;56665;41.106;16.688;2022-11-15T09:12:23;7.90;;;4.60;;
69463;SDS011;56665;41.106;16.688;2022-11-15T09:15:45;10.20;;;5.53;;
69463;SDS011;56665;41.106;16.688;2022-11-15T09:19:08;10.88;;;5.43;;
69463;SDS011;56665;41.106;16.688;2022-11-15T09:22:30;9.52;;;5.40;;
69463;SDS011;56665;41.106;16.688;2022-11-15T09:25:57;10.45;;;5.65;;
69463;SDS011;56665;41.106;16.688;2022-11-15T09:29:21;11.13;;;5.67;;
69463;SDS011;56665;41.106;16.688;2022-11-15T09:32:43;9.88;;;5.18;;
69463;SDS011;56665;41.106;16.688;2022-11-15T09:36:07;8.73;;;5.13;;
69463;SDS011;56665;41.106;16.688;2022-11-15T09:39:31;8.77;;;5.15;;
69463;SDS011;56665;41.106;16.688;2022-11-15T09:50:44;9.70;;;4.75;;
69463;SDS011;56665;41.106;16.688;2022-11-15T09:57:33;8.90;;;4.13;;
69463;SDS011;56665;41.106;16.688;2022-11-15T10:00:44;7.32;;;4.90;;
69463;SDS011;56665;41.106;16.688;2022-11-15T10:03:51;6.57;;;4.17;;
69463;SDS011;56665;41.106;16.688;2022-11-15T10:07:10;7.10;;;4.72;;
69463;SDS011;56665;41.106;16.688;2022-11-15T10:10:24;8.05;;;5.20;;
69463;SDS011;56665;41.106;16.688;2022-11-15T10:13:37;9.02;;;4.82;;
69463;SDS011;56665;41.106;16.688;2022-11-15T10:20:00;10.43;;;6.40;;
69463;SDS011;56665;41.106;16.688;2022-11-15T10:23:20;10.27;;;6.47;;
69463;SDS011;56665;41.106;16.688;2022-11-15T10:26:26;12.60;;;7.50;;
69463;SDS011;56665;41.106;16.688;2022-11-15T10:29:30;12.70;;;7.65;;
69463;SDS011;56665;41.106;16.688;2022-11-15T10:32:35;14.57;;;8.20;;
69463;SDS011;56665;41.106;16.688;2022-11-15T10:35:39;14.93;;;7.90;;
69463;SDS011;56665;41.106;16.688;2022-11-15T10:41:57;13.90;;;7.05;;
69463;SDS011;56665;41.106;16.688;2022-11-15T10:45:38;10.27;;;6.70;;
69463;SDS011;56665;41.106;16.688;2022-11-15T10:48:41;11.48;;;5.90;;
69463;SDS011;56665;41.106;16.688;2022-11-15T10:51:49;12.53;;;5.87;;
69463;SDS011;56665;41.106;16.688;2022-11-15T10:55:01;10.18;;;5.75;;
69463;SDS011;56665;41.106;16.688;2022-11-15T10:58:32;8.73;;;5.30;;
69463;SDS011;56665;41.106;16.688;2022-11-15T11:01:45;12.45;;;6.43;;
69463;SDS011;56665;41.106;16.688;2022-11-15T11:04:50;9.52;;;5.50;;
69463;SDS011;56665;41.106;16.688;2022-11-15T11:08:41;8.70;;;5.10;;
69463;SDS011;56665;41.106;16.688;2022-11-15T11:11:19;9.93;;;6.07;;
69463;SDS011;56665;41.106;16.688;2022-11-15T11:14:28;8.48;;;5.25;;
69463;SDS011;56665;41.106;16.688;2022-11-15T11:20:38;9.43;;;4.88;;
69463;SDS011;56665;41.106;16.688;2022-11-15T11:27:13;8.00;;;4.60;;
69463;SDS011;56665;41.106;16.688;2022-11-15T11:37:20;8.75;;;4.68;;
69463;SDS011;56665;41.106;16.688;2022-11-15T11:40:51;11.00;;;5.27;;
69463;SDS011;56665;41.106;16.688;2022-11-15T11:44:18;12.77;;;5.40;;
69463;SDS011;56665;41.106;16.688;2022-11-15T11:47:58;11.60;;;6.38;;
69463;SDS011;56665;41.106;16.688;2022-11-15T11:52:12;12.90;;;6.78;;
69463;SDS011;56665;41.106;16.688;2022-11-15T11:55:46;9.10;;;5.18;;
69463;SDS011;56665;41.106;16.688;2022-11-15T11:59:07;9.23;;;6.27;;
69463;SDS011;56665;41.106;16.688;2022-11-15T12:02:27;11.05;;;6.57;;
69463;SDS011;56665;41.106;16.688;2022-11-15T12:05:35;9.50;;;5.03;;
69463;SDS011;56665;41.106;16.688;2022-11-15T12:18:50;9.55;;;5.82;;
69463;SDS011;56665;41.106;16.688;2022-11-15T12:22:01;9.30;;;5.97;;
69463;SDS011;56665;41.106;16.688;2022-11-15T12:26:15;14.48;;;10.05;;
69463;SDS011;56665;41.106;16.688;2022-11-15T12:28:48;14.02;;;9.25;;
69463;SDS011;56665;41.106;16.688;2022-11-15T12:31:55;11.87;;;6.20;;
69463;SDS011;56665;41.106;16.688;2022-11-15T12:35:04;23.15;;;14.85;;
69463;SDS011;56665;41.106;16.688;2022-11-15T12:48:54;18.77;;;16.57;;
69463;SDS011;56665;41.106;16.688;2022-11-15T12:55:02;20.15;;;16.63;;
69463;SDS011;56665;41.106;16.688;2022-11-15T12:59:09;11.93;;;9.57;;
69463;SDS011;56665;41.106;16.688;2022-11-15T13:02:20;10.18;;;6.85;;
69463;SDS011;56665;41.106;16.688;2022-11-15T13:08:56;10.68;;;7.05;;
69463;SDS011;56665;41.106;16.688;2022-11-15T13:12:01;9.50;;;7.28;;
69463;SDS011;56665;41.106;16.688;2022-11-15T13:15:35;11.00;;;7.05;;
69463;SDS011;56665;41.106;16.688;2022-11-15T13:18:41;7.97;;;5.45;;
69463;SDS011;56665;41.106;16.688;2022-11-15T13:21:47;7.07;;;4.20;;
69463;SDS011;56665;41.106;16.688;2022-11-15T13:28:43;6.57;;;4.25;;
69463;SDS011;56665;41.106;16.688;2022-11-15T13:31:49;8.02;;;5.75;;
69463;SDS011;56665;41.106;16.688;2022-11-15T13:34:53;10.48;;;6.88;;
69463;SDS011;56665;41.106;16.688;2022-11-15T13:37:57;8.23;;;4.80;;
69463;SDS011;56665;41.106;16.688;2022-11-15T13:44:31;7.43;;;4.53;;
69463;SDS011;56665;41.106;16.688;2022-11-15T13:47:38;7.70;;;4.07;;
69463;SDS011;56665;41.106;16.688;2022-11-15T13:50:41;6.88;;;4.13;;
69463;SDS011;56665;41.106;16.688;2022-11-15T13:53:47;6.10;;;3.53;;
69463;SDS011;56665;41.106;16.688;2022-11-15T13:56:57;5.50;;;3.42;;
69463;SDS011;56665;41.106;16.688;2022-11-15T14:00:02;5.88;;;3.42;;
69463;SDS011;56665;41.106;16.688;2022-11-15T14:03:18;7.55;;;4.60;;
69463;SDS011;56665;41.106;16.688;2022-11-15T14:06:23;6.75;;;4.10;;
69463;SDS011;56665;41.106;16.688;2022-11-15T14:09:31;6.77;;;4.90;;
69463;SDS011;56665;41.106;16.688;2022-11-15T14:12:38;8.40;;;4.32;;
69463;SDS011;56665;41.106;16.688;2022-11-15T14:15:44;10.27;;;5.30;;
69463;SDS011;56665;41.106;16.688;2022-11-15T14:18:51;7.13;;;4.30;;
69463;SDS011;56665;41.106;16.688;2022-11-15T14:22:13;11.73;;;7.85;;
69463;SDS011;56665;41.106;16.688;2022-11-15T14:25:51;11.23;;;5.73;;
69463;SDS011;56665;41.106;16.688;2022-11-15T14:28:55;7.18;;;4.95;;
69463;SDS011;56665;41.106;16.688;2022-11-15T14:32:06;7.55;;;4.70;;
69463;SDS011;56665;41.106;16.688;2022-11-15T14:35:22;7.57;;;5.00;;
69463;SDS011;56665;41.106;16.688;2022-11-15T14:38:26;9.20;;;4.55;;
69463;SDS011;56665;41.106;16.688;2022-11-15T14:41:33;10.63;;;7.03;;
69463;SDS011;56665;41.106;16.688;2022-11-15T14:44:41;14.30;;;8.13;;
69463;SDS011;56665;41.106;16.688;2022-11-15T14:47:44;13.55;;;8.32;;
69463;SDS011;56665;41.106;16.688;2022-11-15T14:50:49;10.30;;;5.63;;
69463;SDS011;56665;41.106;16.688;2022-11-15T14:53:53;12.30;;;8.55;;
69463;SDS011;56665;41.106;16.688;2022-11-15T14:56:58;8.50;;;6.37;;
69463;SDS011;56665;41.106;16.688;2022-11-15T15:00:05;7.93;;;4.95;;
69463;SDS011;56665;41.106;16.688;2022-11-15T15:03:17;11.77;;;8.15;;
69463;SDS011;56665;41.106;16.688;2022-11-15T15:06:22;9.25;;;6.20;;
69463;SDS011;56665;41.106;16.688;2022-11-15T15:09:26;10.20;;;5.85;;
69463;SDS011;56665;41.106;16.688;2022-11-15T15:12:30;9.10;;;6.07;;
69463;SDS011;56665;41.106;16.688;2022-11-15T15:15:37;14.43;;;9.27;;
69463;SDS011;56665;41.106;16.688;2022-11-15T15:18:42;11.93;;;8.65;;
69463;SDS011;56665;41.106;16.688;2022-11-15T15:21:46;11.13;;;8.18;;
69463;SDS011;56665;41.106;16.688;2022-11-15T15:24:51;11.70;;;8.52;;
69463;SDS011;56665;41.106;16.688;2022-11-15T15:27:55;51.10;;;30.80;;
69463;SDS011;56665;41.106;16.688;2022-11-15T15:30:59;51.33;;;32.65;;
69463;SDS011;56665;41.106;16.688;2022-11-15T15:34:02;65.68;;;40.47;;
69463;SDS011;56665;41.106;16.688;2022-11-15T15:40:30;42.25;;;26.52;;
69463;SDS011;56665;41.106;16.688;2022-11-15T15:43:37;39.00;;;23.67;;
69463;SDS011;56665;41.106;16.688;2022-11-15T15:46:41;37.95;;;23.02;;
69463;SDS011;56665;41.106;16.688;2022-11-15T15:49:45;29.27;;;18.63;;
69463;SDS011;56665;41.106;16.688;2022-11-15T15:52:51;25.45;;;15.85;;
69463;SDS011;56665;41.106;16.688;2022-11-15T15:56:01;26.67;;;15.52;;
69463;SDS011;56665;41.106;16.688;2022-11-15T15:59:05;24.17;;;14.57;;
69463;SDS011;56665;41.106;16.688;2022-11-15T16:02:14;25.10;;;14.30;;
69463;SDS011;56665;41.106;16.688;2022-11-15T16:05:18;25.10;;;16.70;;
69463;SDS011;56665;41.106;16.688;2022-11-15T16:08:26;26.98;;;17.00;;
69463;SDS011;56665;41.106;16.688;2022-11-15T16:11:30;33.03;;;20.50;;
69463;SDS011;56665;41.106;16.688;2022-11-15T16:14:35;32.50;;;22.30;;
69463;SDS011;56665;41.106;16.688;2022-11-15T16:17:40;39.22;;;26.15;;
69463;SDS011;56665;41.106;16.688;2022-11-15T16:20:49;55.97;;;34.35;;
69463;SDS011;56665;41.106;16.688;2022-11-15T16:23:55;71.03;;;44.50;;
69463;SDS011;56665;41.106;16.688;2022-11-15T16:27:00;44.35;;;26.75;;
69463;SDS011;56665;41.106;16.688;2022-11-15T16:30:03;47.67;;;25.67;;
69463;SDS011;56665;41.106;16.688;2022-11-15T16:33:09;41.38;;;23.75;;
69463;SDS011;56665;41.106;16.688;2022-11-15T16:52:57;36.53;;;21.63;;
69463;SDS011;56665;41.106;16.688;2022-11-15T16:56:02;22.90;;;15.18;;
69463;SDS011;56665;41.106;16.688;2022-11-15T16:59:06;33.63;;;23.33;;
69463;SDS011;56665;41.106;16.688;2022-11-15T17:02:12;42.95;;;28.42;;
69463;SDS011;56665;41.106;16.688;2022-11-15T17:05:17;64.05;;;42.53;;
69463;SDS011;56665;41.106;16.688;2022-11-15T17:08:23;47.75;;;29.08;;
69463;SDS011;56665;41.106;16.688;2022-11-15T17:11:27;72.68;;;41.85;;
69463;SDS011;56665;41.106;16.688;2022-11-15T17:14:31;48.13;;;31.17;;
69463;SDS011;56665;41.106;16.688;2022-11-15T17:17:39;30.50;;;19.80;;
69463;SDS011;56665;41.106;16.688;2022-11-15T17:20:43;33.40;;;21.30;;
69463;SDS011;56665;41.106;16.688;2022-11-15T17:23:47;74.18;;;44.67;;
69463;SDS011;56665;41.106;16.688;2022-11-15T17:26:52;82.38;;;41.03;;
69463;SDS011;56665;41.106;16.688;2022-11-15T17:29:56;32.43;;;20.13;;
69463;SDS011;56665;41.106;16.688;2022-11-15T17:33:00;33.15;;;19.67;;
69463;SDS011;56665;41.106;16.688;2022-11-15T17:36:05;33.33;;;19.63;;
69463;SDS011;56665;41.106;16.688;2022-11-15T17:39:13;25.67;;;17.98;;
69463;SDS011;56665;41.106;16.688;2022-11-15T17:42:16;29.95;;;18.40;;
69463;SDS011;56665;41.106;16.688;2022-11-15T17:45:20;34.33;;;20.57;;
69463;SDS011;56665;41.106;16.688;2022-11-15T17:48:24;36.20;;;20.08;;
69463;SDS011;56665;41.106;16.688;2022-11-15T17:51:29;35.60;;;22.45;;
69463;SDS011;56665;41.106;16.688;2022-11-15T17:54:33;39.28;;;23.88;;
69463;SDS011;56665;41.106;16.688;2022-11-15T17:57:36;31.67;;;20.48;;
69463;SDS011;56665;41.106;16.688;2022-11-15T18:00:40;28.47;;;17.03;;
69463;SDS011;56665;41.106;16.688;2022-11-15T18:03:44;32.38;;;20.67;;
69463;SDS011;56665;41.106;16.688;2022-11-15T18:06:49;33.80;;;20.73;;
69463;SDS011;56665;41.106;16.688;2022-11-15T18:09:53;34.55;;;19.58;;
69463;SDS011;56665;41.106;16.688;2022-11-15T18:12:58;34.88;;;22.85;;
69463;SDS011;56665;41.106;16.688;2022-11-15T18:16:05;32.77;;;21.50;;
69463;SDS011;56665;41.106;16.688;2022-11-15T18:19:12;38.08;;;23.45;;
69463;SDS011;56665;41.106;16.688;2022-11-15T18:22:17;30.83;;;19.77;;
69463;SDS011;56665;41.106;16.688;2022-11-15T18:25:24;32.65;;;20.58;;
69463;SDS011;56665;41.106;16.688;2022-11-15T18:28:31;31.42;;;21.10;;
69463;SDS011;56665;41.106;16.688;2022-11-15T18:31:39;31.77;;;18.60;;
69463;SDS011;56665;41.106;16.688;2022-11-15T18:34:43;29.63;;;18.15;;
69463;SDS011;56665;41.106;16.688;2022-11-15T18:37:48;27.38;;;17.73;;
69463;SDS011;56665;41.106;16.688;2022-11-15T18:40:53;22.58;;;14.95;;
69463;SDS011;56665;41.106;16.688;2022-11-15T18:43:57;24.38;;;16.98;;
69463;SDS011;56665;41.106;16.688;2022-11-15T18:47:02;32.77;;;21.63;;
69463;SDS011;56665;41.106;16.688;2022-11-15T18:50:06;40.47;;;25.17;;
69463;SDS011;56665;41.106;16.688;2022-11-15T18:53:12;38.88;;;25.85;;
69463;SDS011;56665;41.106;16.688;2022-11-15T18:56:16;41.53;;;27.17;;
69463;SDS011;56665;41.106;16.688;2022-11-15T18:59:21;29.58;;;19.50;;
69463;SDS011;56665;41.106;16.688;2022-11-15T19:02:24;23.10;;;12.80;;
69463;SDS011;56665;41.106;16.688;2022-11-15T19:05:30;14.90;;;9.43;;
69463;SDS011;56665;41.106;16.688;2022-11-15T19:08:38;19.63;;;11.40;;
69463;SDS011;56665;41.106;16.688;2022-11-15T19:11:44;20.40;;;11.63;;
69463;SDS011;56665;41.106;16.688;2022-11-15T19:14:50;19.35;;;11.00;;
69463;SDS011;56665;41.106;16.688;2022-11-15T19:17:55;20.07;;;10.33;;
69463;SDS011;56665;41.106;16.688;2022-11-15T19:21:04;15.63;;;8.40;;
69463;SDS011;56665;41.106;16.688;2022-11-15T19:24:10;16.02;;;8.27;;
69463;SDS011;56665;41.106;16.688;2022-11-15T19:27:14;18.90;;;9.73;;
69463;SDS011;56665;41.106;16.688;2022-11-15T19:30:18;15.82;;;9.13;;
69463;SDS011;56665;41.106;16.688;2022-11-15T19:33:22;26.13;;;14.07;;
69463;SDS011;56665;41.106;16.688;2022-11-15T19:36:29;22.70;;;11.73;;
69463;SDS011;56665;41.106;16.688;2022-11-15T19:39:35;15.93;;;9.32;;
69463;SDS011;56665;41.106;16.688;2022-11-15T19:42:39;14.60;;;8.52;;
69463;SDS011;56665;41.106;16.688;2022-11-15T19:45:50;15.80;;;8.80;;
69463;SDS011;56665;41.106;16.688;2022-11-15T19:48:56;17.30;;;10.30;;
69463;SDS011;56665;41.106;16.688;2022-11-15T19:52:00;17.85;;;10.18;;
69463;SDS011;56665;41.106;16.688;2022-11-15T19:55:04;14.35;;;8.10;;
69463;SDS011;56665;41.106;16.688;2022-11-15T19:58:08;12.80;;;6.60;;
69463;SDS011;56665;41.106;16.688;2022-11-15T20:01:13;14.35;;;6.97;;
69463;SDS011;56665;41.106;16.688;2022-11-15T20:04:20;14.23;;;7.80;;
69463;SDS011;56665;41.106;16.688;2022-11-15T20:07:26;14.18;;;7.68;;
69463;SDS011;56665;41.106;16.688;2022-11-15T20:10:31;14.32;;;8.43;;
69463;SDS011;56665;41.106;16.688;2022-11-15T20:13:36;15.07;;;8.95;;
69463;SDS011;56665;41.106;16.688;2022-11-15T20:16:43;22.77;;;12.15;;
69463;SDS011;56665;41.106;16.688;2022-11-15T20:19:49;18.60;;;11.50;;
69463;SDS011;56665;41.106;16.688;2022-11-15T20:22:52;18.23;;;11.27;;
69463;SDS011;56665;41.106;16.688;2022-11-15T20:25:56;15.48;;;9.85;;
69463;SDS011;56665;41.106;16.688;2022-11-15T20:29:01;15.43;;;8.52;;
69463;SDS011;56665;41.106;16.688;2022-11-15T20:32:05;16.85;;;10.20;;
69463;SDS011;56665;41.106;16.688;2022-11-15T20:35:09;15.53;;;9.10;;
69463;SDS011;56665;41.106;16.688;2022-11-15T20:38:16;12.65;;;6.95;;
69463;SDS011;56665;41.106;16.688;2022-11-15T20:41:19;11.18;;;6.43;;
69463;SDS011;56665;41.106;16.688;2022-11-15T20:44:23;7.65;;;4.45;;
69463;SDS011;56665;41.106;16.688;2022-11-15T20:47:29;8.27;;;3.95;;
69463;SDS011;56665;41.106;16.688;2022-11-15T20:50:34;6.60;;;3.40;;
69463;SDS011;56665;41.106;16.688;2022-11-15T20:53:38;7.55;;;3.60;;
69463;SDS011;56665;41.106;16.688;2022-11-15T20:56:44;6.18;;;3.80;;
69463;SDS011;56665;41.106;16.688;2022-11-15T20:59:49;6.35;;;3.17;;
69463;SDS011;56665;41.106;16.688;2022-11-15T21:02:53;5.60;;;3.33;;